OISL  Lar  Airport

Lar, Iran

Add Bookmark
Status IATA
Operational LRR
Latitude Longitude
27° 40' 28" N 54° 22' 59" E
27.674700 54.383301
Local (DST + 5) UTC (GMT + 4)
Mar 4, 2015 10:27 Mar 4, 2015 06:57
Sunrise-Sunset Local UTC
Begin Civil Twilight 05:49 02:19
Sunrise 06:12 02:42
Sunset 05:55 14:25
End Civil Twilight 06:19 14:49

Current Weather

METAR Observed VFR
OISL 040600Z 00000KT 9999 FEW040 BKN100 18/M01 Q1014 Wed, Mar 4, 2015 @ 06:00 UTC
(57 Minutes ago)
Visual Flight Rules
Wind Visibility Clouds Conditions
Calm 10 km or more
  • Few at 4,000' AGL
  • Broken at 10,000' AGL
  • No significant weather
Temperatures Readings Precipitation
Current Temp 18°C (64°F)
Dewpoint -1°C (30°F)
Humidity 28%
Altimeter 29.94"Hg
Sea Level Pressure 1014mb
Field Elevation 2641.08'
None Recorded

Additional weather within a 185.2km radius of OISL

Map ICAO Location
OISR 122.4km W (254°)
OIBK 133.7km S (197°)
OIBL 134.3km S (161°)
OIBV 139.6km S (227°)
OIBP 165.4km W (259°)
OIKQ 181.7km S (124°)

24 Hour Weather History

Loading
-

24 Hour Weather Graphs

Loading
-

CheckWX.com is intended as a tool to help pilots better visualize weather data. It is not intended as a substitute for an official weather briefing obtained from a Flight Service Station. CheckWX.com does not meet the FAA requirements for an official pre-flight weather briefing. Therefore, it's important that pilots still call and obtain an official FSS pre-flight weather briefing.